Terminal Aerodrome Forecast
Issued by NWS

Home | Current Version | Previous Version | Text Only | Print | Product List | Glossary On
Versions: 1 2 3 4 5 6 7 8 9 10 11 12 13 14 15 16 17
000
FTUS41 KGYX 301720
TAFMHT
TAF
KMHT 301720Z 3018/3118 36007KT P6SM BKN250
     FM302300 VRB04KT P6SM BKN200
     FM310600 04004KT P6SM VCSH BKN050 OVC080 PROB30 3109/3115 5SM
      -SHRA OVC050=

USA.gov is the U.S. government's official web portal to all federal, state and local government web resources and services.